Marshfield, MO

2:20 PM CST on December 18, 2014 (GMT -0600)
MesoWest I-44 @ MM 104.50 - Marshfield MO US MODOT | Change Station
CLOSE
Current Station
Personal Weather Station
Location: Marshfield, MO
Elevation: 1399 ft
Nearby Weather Stations

Elev 1399 ft 37.39 °N, 92.90 °W | Updated 518 days ago

Cloudy
Cloudy
39 °F
Feels Like 39 °F
N
3
Wind Variable Wind from SW
Gusts 3 mph

Today
High -- | Low -- °F
--% Chance of Precip.
Yesterday
High -- | Low -- °F
Precip. -- in
7:20 AM 4:55 PM
Waning Crescent, 12% visible
Pressure 30.17 in
Visibility 9.0 miles
Clouds Overcast 500 ft
Dew Point 36 °F
Humidity 89%
Rainfall -999.00 in
Snow Depth Not available.
UV 1 out of 12
Pollen .60 out of 12
Air Quality Not available.
Flu Activity Not available.
METAR KSGF 181952Z 22003KT 9SM OVC005 03/02 A3014 RMK AO2 SLP214 T00280017

More Conditions Fewer Conditions

Pressure 30.17 in
Visibility 9.0 miles
Clouds Overcast 500 ft
Dew Point 36 °F
Humidity 89%
Rainfall -999.00 in
Snow Depth Not available.
UV 1 out of 12
Pollen .60 out of 12
Air Quality Not available.
Flu Activity Not available.
METAR KSGF 181952Z 22003KT 9SM OVC005 03/02 A3014 RMK AO2 SLP214 T00280017

More Conditions Fewer Conditions

10-Day Weather Forecast

Almanac

Astronomy

Dec. 18, 2014 Rise Set
Actual Time
Civil Twilight
Nautical Twilight
Astronomical Twilight
Moon
Length of Visible Light
Length of Day
Tomorrow will be .
, % of the Moon is Illuminated

Today's Extremes

State Highs State Lows

Community

WunderPhotos

Upload Photos

1,778,993 photos uploaded!

WunderBlogs® & News

Nearby

Air Quality

  Air Quality AQ Index Pollutant
Not available.

Snow Depth

Station Depth Elevation

Earthquake Activity

City Distance Mag. Time & Date
Minimum magnitude displayed is 2.5.

Coastal Water Temperatures

Place Temperature

Nearby Weather Stations